sensor_id;sensor_type;location;lat;lon;timestamp;temperature;humidity
13336;DHT22;6737;51.480;11.962;2023-04-24T00:00:14;13.60;99.90
13336;DHT22;6737;51.480;11.962;2023-04-24T00:02:41;13.60;99.90
13336;DHT22;6737;51.480;11.962;2023-04-24T00:05:15;13.50;99.90
13336;DHT22;6737;51.480;11.962;2023-04-24T00:07:42;13.50;99.90
13336;DHT22;6737;51.480;11.962;2023-04-24T00:10:08;13.40;99.90
13336;DHT22;6737;51.480;11.962;2023-04-24T00:12:35;13.40;99.90
13336;DHT22;6737;51.480;11.962;2023-04-24T00:15:01;13.30;99.90
13336;DHT22;6737;51.480;11.962;2023-04-24T00:17:27;13.30;99.90
13336;DHT22;6737;51.480;11.962;2023-04-24T00:19:53;13.30;99.90
13336;DHT22;6737;51.480;11.962;2023-04-24T00:22:24;13.30;99.90
13336;DHT22;6737;51.480;11.962;2023-04-24T00:24:50;13.40;99.90
13336;DHT22;6737;51.480;11.962;2023-04-24T00:27:16;13.30;99.90
13336;DHT22;6737;51.480;11.962;2023-04-24T00:29:42;13.30;99.90
13336;DHT22;6737;51.480;11.962;2023-04-24T00:32:08;13.20;99.90
13336;DHT22;6737;51.480;11.962;2023-04-24T00:34:33;13.20;99.90
13336;DHT22;6737;51.480;11.962;2023-04-24T00:36:59;13.20;99.90
13336;DHT22;6737;51.480;11.962;2023-04-24T00:39:25;13.10;99.90
13336;DHT22;6737;51.480;11.962;2023-04-24T00:41:51;13.20;99.90
13336;DHT22;6737;51.480;11.962;2023-04-24T00:44:18;13.20;99.90
13336;DHT22;6737;51.480;11.962;2023-04-24T00:46:43;13.00;99.90
13336;DHT22;6737;51.480;11.962;2023-04-24T00:49:09;12.90;99.90
13336;DHT22;6737;51.480;11.962;2023-04-24T00:51:36;13.00;99.90
13336;DHT22;6737;51.480;11.962;2023-04-24T00:54:02;12.90;99.90
13336;DHT22;6737;51.480;11.962;2023-04-24T00:56:28;12.80;99.90
13336;DHT22;6737;51.480;11.962;2023-04-24T00:58:53;12.80;99.90
13336;DHT22;6737;51.480;11.962;2023-04-24T01:01:20;12.80;99.90
13336;DHT22;6737;51.480;11.962;2023-04-24T01:03:47;12.70;99.90
13336;DHT22;6737;51.480;11.962;2023-04-24T01:06:14;12.70;99.90
13336;DHT22;6737;51.480;11.962;2023-04-24T01:08:41;12.70;99.90
13336;DHT22;6737;51.480;11.962;2023-04-24T01:11:07;12.70;99.90
13336;DHT22;6737;51.480;11.962;2023-04-24T01:13:33;12.70;99.90
13336;DHT22;6737;51.480;11.962;2023-04-24T01:16:00;12.70;99.90
13336;DHT22;6737;51.480;11.962;2023-04-24T01:18:27;12.70;99.90
13336;DHT22;6737;51.480;11.962;2023-04-24T01:20:57;12.70;99.90
13336;DHT22;6737;51.480;11.962;2023-04-24T01:23:23;12.70;99.90
13336;DHT22;6737;51.480;11.962;2023-04-24T01:25:50;12.70;99.90
13336;DHT22;6737;51.480;11.962;2023-04-24T01:28:16;12.70;99.90
13336;DHT22;6737;51.480;11.962;2023-04-24T01:30:43;12.60;99.90
13336;DHT22;6737;51.480;11.962;2023-04-24T01:33:09;12.70;99.90
13336;DHT22;6737;51.480;11.962;2023-04-24T01:35:36;12.60;99.90
13336;DHT22;6737;51.480;11.962;2023-04-24T01:38:03;12.60;99.90
13336;DHT22;6737;51.480;11.962;2023-04-24T01:40:29;12.50;99.90
13336;DHT22;6737;51.480;11.962;2023-04-24T01:42:54;12.50;99.90
13336;DHT22;6737;51.480;11.962;2023-04-24T01:45:20;12.50;99.90
13336;DHT22;6737;51.480;11.962;2023-04-24T01:47:47;12.40;99.90
13336;DHT22;6737;51.480;11.962;2023-04-24T01:50:14;12.40;99.90
13336;DHT22;6737;51.480;11.962;2023-04-24T01:52:40;12.30;99.90
13336;DHT22;6737;51.480;11.962;2023-04-24T01:55:06;12.30;99.90
13336;DHT22;6737;51.480;11.962;2023-04-24T01:57:33;12.20;99.90
13336;DHT22;6737;51.480;11.962;2023-04-24T01:59:59;12.20;99.90
13336;DHT22;6737;51.480;11.962;2023-04-24T02:02:25;12.20;99.90
13336;DHT22;6737;51.480;11.962;2023-04-24T02:04:56;12.20;99.90
13336;DHT22;6737;51.480;11.962;2023-04-24T02:07:22;12.20;99.90
13336;DHT22;6737;51.480;11.962;2023-04-24T02:09:47;12.30;99.90
13336;DHT22;6737;51.480;11.962;2023-04-24T02:12:14;12.30;99.90
13336;DHT22;6737;51.480;11.962;2023-04-24T02:14:40;12.20;99.90
13336;DHT22;6737;51.480;11.962;2023-04-24T02:17:07;12.20;99.90
13336;DHT22;6737;51.480;11.962;2023-04-24T02:19:33;12.30;99.90
13336;DHT22;6737;51.480;11.962;2023-04-24T02:21:59;12.30;99.90
13336;DHT22;6737;51.480;11.962;2023-04-24T02:24:25;12.30;99.90
13336;DHT22;6737;51.480;11.962;2023-04-24T02:26:50;12.30;99.90
13336;DHT22;6737;51.480;11.962;2023-04-24T02:29:16;12.30;99.90
13336;DHT22;6737;51.480;11.962;2023-04-24T02:31:42;12.30;99.90
13336;DHT22;6737;51.480;11.962;2023-04-24T02:34:08;12.30;99.90
13336;DHT22;6737;51.480;11.962;2023-04-24T02:36:33;12.20;99.90
13336;DHT22;6737;51.480;11.962;2023-04-24T02:38:59;12.20;99.90
13336;DHT22;6737;51.480;11.962;2023-04-24T02:41:26;12.20;99.90
13336;DHT22;6737;51.480;11.962;2023-04-24T02:43:58;12.20;99.90
13336;DHT22;6737;51.480;11.962;2023-04-24T02:46:24;12.20;99.90
13336;DHT22;6737;51.480;11.962;2023-04-24T02:48:50;12.20;99.90
13336;DHT22;6737;51.480;11.962;2023-04-24T02:51:15;12.20;99.90
13336;DHT22;6737;51.480;11.962;2023-04-24T02:53:41;12.20;99.90
13336;DHT22;6737;51.480;11.962;2023-04-24T02:56:07;12.20;99.90
13336;DHT22;6737;51.480;11.962;2023-04-24T02:58:33;12.20;99.90
13336;DHT22;6737;51.480;11.962;2023-04-24T03:00:58;12.20;99.90
13336;DHT22;6737;51.480;11.962;2023-04-24T03:03:24;12.20;99.90
13336;DHT22;6737;51.480;11.962;2023-04-24T03:05:50;12.20;99.90
13336;DHT22;6737;51.480;11.962;2023-04-24T03:08:16;12.20;99.90
13336;DHT22;6737;51.480;11.962;2023-04-24T03:10:42;12.10;99.90
13336;DHT22;6737;51.480;11.962;2023-04-24T03:13:08;12.10;99.90
13336;DHT22;6737;51.480;11.962;2023-04-24T03:15:33;12.10;99.90
13336;DHT22;6737;51.480;11.962;2023-04-24T03:17:59;12.10;99.90
13336;DHT22;6737;51.480;11.962;2023-04-24T03:20:26;12.10;99.90
13336;DHT22;6737;51.480;11.962;2023-04-24T03:22:51;12.20;99.90
13336;DHT22;6737;51.480;11.962;2023-04-24T03:25:18;12.10;99.90
13336;DHT22;6737;51.480;11.962;2023-04-24T03:27:44;12.10;99.90
13336;DHT22;6737;51.480;11.962;2023-04-24T03:30:10;12.10;99.90
13336;DHT22;6737;51.480;11.962;2023-04-24T03:32:36;12.10;99.90
13336;DHT22;6737;51.480;11.962;2023-04-24T03:35:02;12.00;99.90
13336;DHT22;6737;51.480;11.962;2023-04-24T03:37:28;12.00;99.90
13336;DHT22;6737;51.480;11.962;2023-04-24T03:39:54;12.00;99.90
13336;DHT22;6737;51.480;11.962;2023-04-24T03:42:20;11.90;99.90
13336;DHT22;6737;51.480;11.962;2023-04-24T03:44:46;11.90;99.90
13336;DHT22;6737;51.480;11.962;2023-04-24T03:47:11;11.80;99.90
13336;DHT22;6737;51.480;11.962;2023-04-24T03:49:37;11.70;99.90
13336;DHT22;6737;51.480;11.962;2023-04-24T03:52:03;11.70;99.90
13336;DHT22;6737;51.480;11.962;2023-04-24T03:54:29;11.70;99.90
13336;DHT22;6737;51.480;11.962;2023-04-24T03:56:54;11.70;99.90
13336;DHT22;6737;51.480;11.962;2023-04-24T03:59:20;11.60;99.90
13336;DHT22;6737;51.480;11.962;2023-04-24T04:01:46;11.60;99.90
13336;DHT22;6737;51.480;11.962;2023-04-24T04:04:12;11.50;99.90
13336;DHT22;6737;51.480;11.962;2023-04-24T04:06:37;11.50;99.90
13336;DHT22;6737;51.480;11.962;2023-04-24T04:09:03;11.50;99.90
13336;DHT22;6737;51.480;11.962;2023-04-24T04:11:29;11.50;99.90
13336;DHT22;6737;51.480;11.962;2023-04-24T04:13:56;11.50;99.90
13336;DHT22;6737;51.480;11.962;2023-04-24T04:16:22;11.50;99.90
13336;DHT22;6737;51.480;11.962;2023-04-24T04:18:48;11.40;99.90
13336;DHT22;6737;51.480;11.962;2023-04-24T04:21:14;11.40;99.90
13336;DHT22;6737;51.480;11.962;2023-04-24T04:23:40;11.50;99.90
13336;DHT22;6737;51.480;11.962;2023-04-24T04:26:06;11.50;99.90
13336;DHT22;6737;51.480;11.962;2023-04-24T04:28:32;11.50;99.90
13336;DHT22;6737;51.480;11.962;2023-04-24T04:30:58;11.50;99.90
13336;DHT22;6737;51.480;11.962;2023-04-24T04:33:24;11.40;99.90
13336;DHT22;6737;51.480;11.962;2023-04-24T04:35:51;11.50;99.90
13336;DHT22;6737;51.480;11.962;2023-04-24T04:38:18;11.50;99.90
13336;DHT22;6737;51.480;11.962;2023-04-24T04:40:45;11.50;99.90
13336;DHT22;6737;51.480;11.962;2023-04-24T04:43:12;11.60;99.90
13336;DHT22;6737;51.480;11.962;2023-04-24T04:45:39;11.50;99.90
13336;DHT22;6737;51.480;11.962;2023-04-24T04:48:07;11.60;99.90
13336;DHT22;6737;51.480;11.962;2023-04-24T04:50:35;11.70;99.90
13336;DHT22;6737;51.480;11.962;2023-04-24T04:53:01;11.80;99.90
13336;DHT22;6737;51.480;11.962;2023-04-24T04:55:27;11.90;99.90
13336;DHT22;6737;51.480;11.962;2023-04-24T04:57:52;11.90;99.90
13336;DHT22;6737;51.480;11.962;2023-04-24T05:00:19;11.90;99.90
13336;DHT22;6737;51.480;11.962;2023-04-24T05:02:44;11.90;99.90
13336;DHT22;6737;51.480;11.962;2023-04-24T05:05:10;12.00;99.90
13336;DHT22;6737;51.480;11.962;2023-04-24T05:07:36;12.00;99.90
13336;DHT22;6737;51.480;11.962;2023-04-24T05:10:03;12.00;99.90
13336;DHT22;6737;51.480;11.962;2023-04-24T05:12:29;12.00;99.90
13336;DHT22;6737;51.480;11.962;2023-04-24T05:14:54;12.00;99.90
13336;DHT22;6737;51.480;11.962;2023-04-24T05:17:20;12.10;99.90
13336;DHT22;6737;51.480;11.962;2023-04-24T05:19:46;12.10;99.90
13336;DHT22;6737;51.480;11.962;2023-04-24T05:22:12;12.20;99.90
13336;DHT22;6737;51.480;11.962;2023-04-24T05:24:38;12.20;99.90
13336;DHT22;6737;51.480;11.962;2023-04-24T05:27:04;12.20;99.90
13336;DHT22;6737;51.480;11.962;2023-04-24T05:29:32;12.20;99.90
13336;DHT22;6737;51.480;11.962;2023-04-24T05:31:59;12.30;99.90
13336;DHT22;6737;51.480;11.962;2023-04-24T05:34:26;12.30;99.90
13336;DHT22;6737;51.480;11.962;2023-04-24T05:36:52;12.30;99.90
13336;DHT22;6737;51.480;11.962;2023-04-24T05:39:18;12.40;99.90
13336;DHT22;6737;51.480;11.962;2023-04-24T05:41:45;12.50;99.90
13336;DHT22;6737;51.480;11.962;2023-04-24T05:44:11;12.50;99.90
13336;DHT22;6737;51.480;11.962;2023-04-24T05:46:36;12.60;99.90
13336;DHT22;6737;51.480;11.962;2023-04-24T05:49:02;12.60;99.90
13336;DHT22;6737;51.480;11.962;2023-04-24T05:51:28;12.70;99.90
13336;DHT22;6737;51.480;11.962;2023-04-24T05:53:54;12.70;99.90
13336;DHT22;6737;51.480;11.962;2023-04-24T05:56:20;12.80;99.90
13336;DHT22;6737;51.480;11.962;2023-04-24T05:58:46;13.00;99.90
13336;DHT22;6737;51.480;11.962;2023-04-24T06:01:12;13.10;99.90
13336;DHT22;6737;51.480;11.962;2023-04-24T06:03:41;13.20;99.90
13336;DHT22;6737;51.480;11.962;2023-04-24T06:06:07;13.20;99.90
13336;DHT22;6737;51.480;11.962;2023-04-24T06:08:34;13.30;99.90
13336;DHT22;6737;51.480;11.962;2023-04-24T06:11:01;13.40;99.90
13336;DHT22;6737;51.480;11.962;2023-04-24T06:13:26;13.40;99.90
13336;DHT22;6737;51.480;11.962;2023-04-24T06:15:52;13.50;99.90
13336;DHT22;6737;51.480;11.962;2023-04-24T06:18:18;13.50;99.90
13336;DHT22;6737;51.480;11.962;2023-04-24T06:20:45;13.60;99.90
13336;DHT22;6737;51.480;11.962;2023-04-24T06:23:12;13.60;99.90
13336;DHT22;6737;51.480;11.962;2023-04-24T06:25:38;13.50;99.90
13336;DHT22;6737;51.480;11.962;2023-04-24T06:28:04;13.40;99.90
13336;DHT22;6737;51.480;11.962;2023-04-24T06:30:30;13.50;99.90
13336;DHT22;6737;51.480;11.962;2023-04-24T06:32:56;13.40;99.90
13336;DHT22;6737;51.480;11.962;2023-04-24T06:35:22;13.40;99.90
13336;DHT22;6737;51.480;11.962;2023-04-24T06:37:48;13.40;99.90
13336;DHT22;6737;51.480;11.962;2023-04-24T06:40:14;13.40;99.90
13336;DHT22;6737;51.480;11.962;2023-04-24T06:42:40;13.50;99.90
13336;DHT22;6737;51.480;11.962;2023-04-24T06:45:06;13.60;99.90
13336;DHT22;6737;51.480;11.962;2023-04-24T06:47:31;13.60;99.90
13336;DHT22;6737;51.480;11.962;2023-04-24T06:49:58;13.60;99.90
13336;DHT22;6737;51.480;11.962;2023-04-24T06:52:23;13.70;99.90
13336;DHT22;6737;51.480;11.962;2023-04-24T06:54:49;13.70;99.90
13336;DHT22;6737;51.480;11.962;2023-04-24T06:57:15;13.70;99.90
13336;DHT22;6737;51.480;11.962;2023-04-24T06:59:42;13.70;99.90
13336;DHT22;6737;51.480;11.962;2023-04-24T07:02:08;13.70;99.90
13336;DHT22;6737;51.480;11.962;2023-04-24T07:04:34;13.70;99.90
13336;DHT22;6737;51.480;11.962;2023-04-24T07:07:00;13.70;99.90
13336;DHT22;6737;51.480;11.962;2023-04-24T07:09:27;13.70;99.90
13336;DHT22;6737;51.480;11.962;2023-04-24T07:11:53;13.80;99.90
13336;DHT22;6737;51.480;11.962;2023-04-24T07:14:19;13.80;99.90
13336;DHT22;6737;51.480;11.962;2023-04-24T07:16:46;13.80;99.90
13336;DHT22;6737;51.480;11.962;2023-04-24T07:19:12;13.80;99.90
13336;DHT22;6737;51.480;11.962;2023-04-24T07:21:39;13.80;99.90
13336;DHT22;6737;51.480;11.962;2023-04-24T07:24:05;13.90;99.90
13336;DHT22;6737;51.480;11.962;2023-04-24T07:26:35;13.90;99.90
13336;DHT22;6737;51.480;11.962;2023-04-24T07:29:01;14.00;99.90
13336;DHT22;6737;51.480;11.962;2023-04-24T07:31:26;14.20;99.90
13336;DHT22;6737;51.480;11.962;2023-04-24T07:33:52;14.20;99.90
13336;DHT22;6737;51.480;11.962;2023-04-24T07:36:18;14.40;99.90
13336;DHT22;6737;51.480;11.962;2023-04-24T07:38:47;14.50;99.90
13336;DHT22;6737;51.480;11.962;2023-04-24T07:41:14;14.50;99.90
13336;DHT22;6737;51.480;11.962;2023-04-24T07:43:40;14.50;99.90
13336;DHT22;6737;51.480;11.962;2023-04-24T07:46:07;14.50;99.90
13336;DHT22;6737;51.480;11.962;2023-04-24T07:48:34;14.40;99.90
13336;DHT22;6737;51.480;11.962;2023-04-24T07:51:00;14.50;99.90
13336;DHT22;6737;51.480;11.962;2023-04-24T07:53:25;14.50;99.90
13336;DHT22;6737;51.480;11.962;2023-04-24T07:55:51;14.60;99.90
13336;DHT22;6737;51.480;11.962;2023-04-24T07:58:17;14.50;99.90
13336;DHT22;6737;51.480;11.962;2023-04-24T08:00:42;14.60;99.90
13336;DHT22;6737;51.480;11.962;2023-04-24T08:03:08;14.60;99.90
13336;DHT22;6737;51.480;11.962;2023-04-24T08:05:35;14.50;99.90
13336;DHT22;6737;51.480;11.962;2023-04-24T08:08:01;14.60;99.90
13336;DHT22;6737;51.480;11.962;2023-04-24T08:10:27;14.60;99.90
13336;DHT22;6737;51.480;11.962;2023-04-24T08:12:53;14.50;99.90
13336;DHT22;6737;51.480;11.962;2023-04-24T08:15:18;14.60;99.90
13336;DHT22;6737;51.480;11.962;2023-04-24T08:17:44;14.60;99.90
13336;DHT22;6737;51.480;11.962;2023-04-24T08:20:11;14.60;99.90
13336;DHT22;6737;51.480;11.962;2023-04-24T08:22:40;14.60;99.90
13336;DHT22;6737;51.480;11.962;2023-04-24T08:25:06;14.60;99.90
13336;DHT22;6737;51.480;11.962;2023-04-24T08:27:32;14.70;99.90
13336;DHT22;6737;51.480;11.962;2023-04-24T08:29:58;14.70;99.90
13336;DHT22;6737;51.480;11.962;2023-04-24T08:32:27;14.80;99.90
13336;DHT22;6737;51.480;11.962;2023-04-24T08:34:56;14.70;99.90
13336;DHT22;6737;51.480;11.962;2023-04-24T08:37:23;14.80;99.90
13336;DHT22;6737;51.480;11.962;2023-04-24T08:39:50;14.80;99.90
13336;DHT22;6737;51.480;11.962;2023-04-24T08:42:18;14.80;99.90
13336;DHT22;6737;51.480;11.962;2023-04-24T08:44:44;14.60;99.90
13336;DHT22;6737;51.480;11.962;2023-04-24T08:47:12;14.50;99.90
13336;DHT22;6737;51.480;11.962;2023-04-24T08:49:38;14.50;99.90
13336;DHT22;6737;51.480;11.962;2023-04-24T08:52:07;14.40;99.90
13336;DHT22;6737;51.480;11.962;2023-04-24T08:54:35;14.30;99.90
13336;DHT22;6737;51.480;11.962;2023-04-24T08:57:02;14.30;99.90
13336;DHT22;6737;51.480;11.962;2023-04-24T08:59:33;14.30;99.90
13336;DHT22;6737;51.480;11.962;2023-04-24T09:02:00;14.30;99.90
13336;DHT22;6737;51.480;11.962;2023-04-24T09:04:26;14.50;99.90
13336;DHT22;6737;51.480;11.962;2023-04-24T09:06:57;14.70;99.90
13336;DHT22;6737;51.480;11.962;2023-04-24T09:09:30;15.00;99.90
13336;DHT22;6737;51.480;11.962;2023-04-24T09:11:57;15.30;99.90
13336;DHT22;6737;51.480;11.962;2023-04-24T09:14:24;15.40;99.90
13336;DHT22;6737;51.480;11.962;2023-04-24T09:16:51;15.40;99.90
13336;DHT22;6737;51.480;11.962;2023-04-24T09:19:16;15.30;99.90
13336;DHT22;6737;51.480;11.962;2023-04-24T09:21:45;15.30;99.90
13336;DHT22;6737;51.480;11.962;2023-04-24T09:24:20;15.40;99.90
13336;DHT22;6737;51.480;11.962;2023-04-24T09:26:49;15.50;99.90
13336;DHT22;6737;51.480;11.962;2023-04-24T09:29:16;15.70;99.90
13336;DHT22;6737;51.480;11.962;2023-04-24T09:31:43;15.90;99.90
13336;DHT22;6737;51.480;11.962;2023-04-24T09:34:09;16.00;99.90
13336;DHT22;6737;51.480;11.962;2023-04-24T09:36:41;16.10;99.90
13336;DHT22;6737;51.480;11.962;2023-04-24T09:39:10;16.10;99.90
13336;DHT22;6737;51.480;11.962;2023-04-24T09:41:52;16.20;99.90
13336;DHT22;6737;51.480;11.962;2023-04-24T09:44:24;16.20;99.90
13336;DHT22;6737;51.480;11.962;2023-04-24T09:46:53;16.40;99.90
13336;DHT22;6737;51.480;11.962;2023-04-24T09:49:27;16.30;99.90
13336;DHT22;6737;51.480;11.962;2023-04-24T09:52:04;16.30;99.90
13336;DHT22;6737;51.480;11.962;2023-04-24T09:54:30;16.30;99.90
13336;DHT22;6737;51.480;11.962;2023-04-24T09:56:56;16.20;99.90
13336;DHT22;6737;51.480;11.962;2023-04-24T09:59:22;16.30;99.90
13336;DHT22;6737;51.480;11.962;2023-04-24T10:01:49;16.20;99.90
13336;DHT22;6737;51.480;11.962;2023-04-24T10:04:22;16.20;99.90
13336;DHT22;6737;51.480;11.962;2023-04-24T10:06:50;16.10;99.90
13336;DHT22;6737;51.480;11.962;2023-04-24T10:09:22;15.70;99.90
13336;DHT22;6737;51.480;11.962;2023-04-24T10:11:51;15.70;99.90
13336;DHT22;6737;51.480;11.962;2023-04-24T10:14:22;15.50;99.90
13336;DHT22;6737;51.480;11.962;2023-04-24T10:16:49;15.60;99.90
13336;DHT22;6737;51.480;11.962;2023-04-24T10:19:16;15.80;99.90
13336;DHT22;6737;51.480;11.962;2023-04-24T10:21:44;15.90;99.90
13336;DHT22;6737;51.480;11.962;2023-04-24T10:24:18;16.10;99.90
13336;DHT22;6737;51.480;11.962;2023-04-24T10:26:46;16.10;99.90
13336;DHT22;6737;51.480;11.962;2023-04-24T10:29:18;16.00;99.90
13336;DHT22;6737;51.480;11.962;2023-04-24T10:31:44;15.90;99.90
13336;DHT22;6737;51.480;11.962;2023-04-24T10:34:15;15.90;99.90
13336;DHT22;6737;51.480;11.962;2023-04-24T10:36:46;15.80;99.90
13336;DHT22;6737;51.480;11.962;2023-04-24T10:39:13;15.80;99.90
13336;DHT22;6737;51.480;11.962;2023-04-24T10:41:44;15.70;99.90
13336;DHT22;6737;51.480;11.962;2023-04-24T10:44:14;15.80;99.90
13336;DHT22;6737;51.480;11.962;2023-04-24T10:46:46;15.50;99.90
13336;DHT22;6737;51.480;11.962;2023-04-24T10:49:28;15.50;99.90
13336;DHT22;6737;51.480;11.962;2023-04-24T10:52:01;15.60;99.90
13336;DHT22;6737;51.480;11.962;2023-04-24T10:54:28;15.60;99.90
13336;DHT22;6737;51.480;11.962;2023-04-24T11:00:14;15.80;99.90
13336;DHT22;6737;51.480;11.962;2023-04-24T11:02:41;15.80;99.90
13336;DHT22;6737;51.480;11.962;2023-04-24T11:05:18;15.80;99.90
13336;DHT22;6737;51.480;11.962;2023-04-24T11:08:26;15.80;99.90
13336;DHT22;6737;51.480;11.962;2023-04-24T11:11:10;15.80;99.90
13336;DHT22;6737;51.480;11.962;2023-04-24T11:18:51;15.60;99.90
13336;DHT22;6737;51.480;11.962;2023-04-24T11:21:21;15.60;99.90
13336;DHT22;6737;51.480;11.962;2023-04-24T11:23:48;15.80;99.90
13336;DHT22;6737;51.480;11.962;2023-04-24T11:26:19;15.90;99.90
13336;DHT22;6737;51.480;11.962;2023-04-24T11:28:47;16.00;99.90
13336;DHT22;6737;51.480;11.962;2023-04-24T11:31:41;16.00;99.90
13336;DHT22;6737;51.480;11.962;2023-04-24T11:34:14;15.90;99.90
13336;DHT22;6737;51.480;11.962;2023-04-24T11:36:46;16.00;99.90
13336;DHT22;6737;51.480;11.962;2023-04-24T11:39:13;16.20;99.90
13336;DHT22;6737;51.480;11.962;2023-04-24T11:41:39;16.20;99.90
13336;DHT22;6737;51.480;11.962;2023-04-24T11:44:07;16.10;99.90
13336;DHT22;6737;51.480;11.962;2023-04-24T11:46:33;16.00;99.90
13336;DHT22;6737;51.480;11.962;2023-04-24T11:48:59;15.90;99.90
13336;DHT22;6737;51.480;11.962;2023-04-24T11:51:28;15.90;99.90
13336;DHT22;6737;51.480;11.962;2023-04-24T11:53:55;15.80;99.90
13336;DHT22;6737;51.480;11.962;2023-04-24T11:56:22;15.80;99.90
13336;DHT22;6737;51.480;11.962;2023-04-24T11:58:48;15.80;99.90
13336;DHT22;6737;51.480;11.962;2023-04-24T12:01:17;16.00;99.90
13336;DHT22;6737;51.480;11.962;2023-04-24T12:03:48;16.20;99.90
13336;DHT22;6737;51.480;11.962;2023-04-24T12:06:14;16.20;99.90
13336;DHT22;6737;51.480;11.962;2023-04-24T12:08:39;16.10;99.90
13336;DHT22;6737;51.480;11.962;2023-04-24T12:11:06;16.00;99.90
13336;DHT22;6737;51.480;11.962;2023-04-24T12:13:33;15.90;99.90
13336;DHT22;6737;51.480;11.962;2023-04-24T12:16:03;15.70;99.90
13336;DHT22;6737;51.480;11.962;2023-04-24T12:18:30;15.80;99.90
13336;DHT22;6737;51.480;11.962;2023-04-24T12:21:23;15.70;99.90
13336;DHT22;6737;51.480;11.962;2023-04-24T12:23:54;15.70;99.90
13336;DHT22;6737;51.480;11.962;2023-04-24T12:26:21;15.90;99.90
13336;DHT22;6737;51.480;11.962;2023-04-24T12:28:49;16.10;99.90
13336;DHT22;6737;51.480;11.962;2023-04-24T12:31:17;16.40;99.90
13336;DHT22;6737;51.480;11.962;2023-04-24T12:33:46;16.40;99.90
13336;DHT22;6737;51.480;11.962;2023-04-24T12:36:12;16.40;99.90
13336;DHT22;6737;51.480;11.962;2023-04-24T12:38:39;16.40;99.90
13336;DHT22;6737;51.480;11.962;2023-04-24T12:41:12;16.30;99.90
13336;DHT22;6737;51.480;11.962;2023-04-24T12:43:38;16.10;99.90
13336;DHT22;6737;51.480;11.962;2023-04-24T12:46:16;16.10;99.90
13336;DHT22;6737;51.480;11.962;2023-04-24T12:48:41;16.30;99.90
13336;DHT22;6737;51.480;11.962;2023-04-24T12:51:07;16.40;99.90
13336;DHT22;6737;51.480;11.962;2023-04-24T12:53:33;16.50;99.90
13336;DHT22;6737;51.480;11.962;2023-04-24T12:55:59;16.60;99.90
13336;DHT22;6737;51.480;11.962;2023-04-24T12:58:25;16.50;99.90
13336;DHT22;6737;51.480;11.962;2023-04-24T13:00:50;16.60;99.90
13336;DHT22;6737;51.480;11.962;2023-04-24T13:03:16;16.50;99.90
13336;DHT22;6737;51.480;11.962;2023-04-24T13:05:43;16.50;99.90
13336;DHT22;6737;51.480;11.962;2023-04-24T13:08:09;16.50;99.90
13336;DHT22;6737;51.480;11.962;2023-04-24T13:10:35;16.60;99.90
13336;DHT22;6737;51.480;11.962;2023-04-24T13:13:01;16.60;99.90
13336;DHT22;6737;51.480;11.962;2023-04-24T13:15:27;16.50;99.90
13336;DHT22;6737;51.480;11.962;2023-04-24T13:17:53;16.20;99.90
13336;DHT22;6737;51.480;11.962;2023-04-24T13:20:19;16.20;99.90
13336;DHT22;6737;51.480;11.962;2023-04-24T13:22:45;16.20;99.90
13336;DHT22;6737;51.480;11.962;2023-04-24T13:25:11;16.10;99.90
13336;DHT22;6737;51.480;11.962;2023-04-24T13:27:39;15.90;99.90
13336;DHT22;6737;51.480;11.962;2023-04-24T13:30:06;15.80;99.90
13336;DHT22;6737;51.480;11.962;2023-04-24T13:32:32;15.70;99.90
13336;DHT22;6737;51.480;11.962;2023-04-24T13:34:59;15.80;99.90
13336;DHT22;6737;51.480;11.962;2023-04-24T13:37:24;15.70;99.90
13336;DHT22;6737;51.480;11.962;2023-04-24T13:39:50;15.70;99.90
13336;DHT22;6737;51.480;11.962;2023-04-24T13:42:16;15.70;99.90
13336;DHT22;6737;51.480;11.962;2023-04-24T13:44:42;15.50;99.90
13336;DHT22;6737;51.480;11.962;2023-04-24T13:47:08;15.40;99.90
13336;DHT22;6737;51.480;11.962;2023-04-24T13:49:34;15.20;99.90
13336;DHT22;6737;51.480;11.962;2023-04-24T13:51:59;15.30;99.90
13336;DHT22;6737;51.480;11.962;2023-04-24T13:54:26;15.50;99.90
13336;DHT22;6737;51.480;11.962;2023-04-24T13:56:52;15.70;99.90
13336;DHT22;6737;51.480;11.962;2023-04-24T13:59:20;15.90;99.90
13336;DHT22;6737;51.480;11.962;2023-04-24T14:01:47;15.80;99.90
13336;DHT22;6737;51.480;11.962;2023-04-24T14:04:13;15.80;99.90
13336;DHT22;6737;51.480;11.962;2023-04-24T14:06:38;15.60;99.90
13336;DHT22;6737;51.480;11.962;2023-04-24T14:09:04;15.50;99.90
13336;DHT22;6737;51.480;11.962;2023-04-24T14:11:30;15.40;99.90
13336;DHT22;6737;51.480;11.962;2023-04-24T14:13:56;15.20;99.90
13336;DHT22;6737;51.480;11.962;2023-04-24T14:16:22;15.10;99.90
13336;DHT22;6737;51.480;11.962;2023-04-24T14:18:48;15.10;99.90
13336;DHT22;6737;51.480;11.962;2023-04-24T14:21:13;15.00;99.90
13336;DHT22;6737;51.480;11.962;2023-04-24T14:23:39;14.90;99.90
13336;DHT22;6737;51.480;11.962;2023-04-24T14:26:05;14.90;99.90
13336;DHT22;6737;51.480;11.962;2023-04-24T14:28:32;14.90;99.90
13336;DHT22;6737;51.480;11.962;2023-04-24T14:30:58;14.90;99.90
13336;DHT22;6737;51.480;11.962;2023-04-24T14:33:23;14.80;99.90
13336;DHT22;6737;51.480;11.962;2023-04-24T14:35:49;14.80;99.90
13336;DHT22;6737;51.480;11.962;2023-04-24T14:38:15;14.90;99.90
13336;DHT22;6737;51.480;11.962;2023-04-24T14:40:41;14.80;99.90
13336;DHT22;6737;51.480;11.962;2023-04-24T14:43:07;14.60;99.90
13336;DHT22;6737;51.480;11.962;2023-04-24T14:45:32;14.30;99.90
13336;DHT22;6737;51.480;11.962;2023-04-24T14:47:58;14.30;99.90
13336;DHT22;6737;51.480;11.962;2023-04-24T14:50:24;14.20;99.90
13336;DHT22;6737;51.480;11.962;2023-04-24T14:52:56;14.20;99.90
13336;DHT22;6737;51.480;11.962;2023-04-24T14:55:27;14.10;99.90
13336;DHT22;6737;51.480;11.962;2023-04-24T14:57:53;14.00;99.90
13336;DHT22;6737;51.480;11.962;2023-04-24T15:00:21;13.90;99.90
13336;DHT22;6737;51.480;11.962;2023-04-24T15:02:49;13.80;99.90
13336;DHT22;6737;51.480;11.962;2023-04-24T15:05:15;14.00;99.90
13336;DHT22;6737;51.480;11.962;2023-04-24T15:07:41;13.90;99.90
13336;DHT22;6737;51.480;11.962;2023-04-24T15:10:08;13.80;99.90
13336;DHT22;6737;51.480;11.962;2023-04-24T15:12:33;13.80;99.90
13336;DHT22;6737;51.480;11.962;2023-04-24T15:14:59;13.80;99.90
13336;DHT22;6737;51.480;11.962;2023-04-24T15:17:26;13.70;99.90
13336;DHT22;6737;51.480;11.962;2023-04-24T15:19:52;13.70;99.90
13336;DHT22;6737;51.480;11.962;2023-04-24T15:22:17;13.80;99.90
13336;DHT22;6737;51.480;11.962;2023-04-24T15:24:43;13.70;99.90
13336;DHT22;6737;51.480;11.962;2023-04-24T15:27:10;13.60;99.90
13336;DHT22;6737;51.480;11.962;2023-04-24T15:29:37;13.70;99.90
13336;DHT22;6737;51.480;11.962;2023-04-24T15:32:03;13.70;99.90
13336;DHT22;6737;51.480;11.962;2023-04-24T15:34:29;13.70;99.90
13336;DHT22;6737;51.480;11.962;2023-04-24T15:36:55;13.70;99.90